sensor_id;sensor_type;location;lat;lon;timestamp;pressure;altitude;pressure_sealevel;temperature;humidity
13209;BME280;6669;42.678;23.332;2023-05-23T00:00:42;94404.00;;;12.12;100.00
13209;BME280;6669;42.678;23.332;2023-05-23T00:03:10;94402.94;;;12.06;100.00
13209;BME280;6669;42.678;23.332;2023-05-23T00:05:38;94395.09;;;11.99;100.00
13209;BME280;6669;42.678;23.332;2023-05-23T00:08:06;94391.22;;;11.95;100.00
13209;BME280;6669;42.678;23.332;2023-05-23T00:10:35;94397.16;;;11.89;100.00
13209;BME280;6669;42.678;23.332;2023-05-23T00:13:03;94409.16;;;11.90;100.00
13209;BME280;6669;42.678;23.332;2023-05-23T00:15:35;94397.53;;;11.86;100.00
13209;BME280;6669;42.678;23.332;2023-05-23T00:18:04;94402.41;;;11.74;100.00
13209;BME280;6669;42.678;23.332;2023-05-23T00:20:35;94399.66;;;11.60;100.00
13209;BME280;6669;42.678;23.332;2023-05-23T00:23:03;94399.72;;;11.45;100.00
13209;BME280;6669;42.678;23.332;2023-05-23T00:25:31;94396.28;;;11.45;100.00
13209;BME280;6669;42.678;23.332;2023-05-23T00:28:03;94381.13;;;11.49;100.00
13209;BME280;6669;42.678;23.332;2023-05-23T00:30:32;94392.41;;;11.56;100.00
13209;BME280;6669;42.678;23.332;2023-05-23T00:33:03;94397.97;;;11.53;100.00
13209;BME280;6669;42.678;23.332;2023-05-23T00:35:31;94397.19;;;11.52;100.00
13209;BME280;6669;42.678;23.332;2023-05-23T00:37:59;94397.47;;;11.42;100.00
13209;BME280;6669;42.678;23.332;2023-05-23T00:40:27;94396.84;;;11.40;100.00
13209;BME280;6669;42.678;23.332;2023-05-23T00:42:55;94393.63;;;11.38;100.00
13209;BME280;6669;42.678;23.332;2023-05-23T00:45:25;94389.38;;;11.37;100.00
13209;BME280;6669;42.678;23.332;2023-05-23T00:47:53;94397.00;;;11.39;100.00
13209;BME280;6669;42.678;23.332;2023-05-23T00:50:21;94391.91;;;11.45;100.00
13209;BME280;6669;42.678;23.332;2023-05-23T00:52:49;94383.53;;;11.50;100.00
13209;BME280;6669;42.678;23.332;2023-05-23T00:55:17;94387.13;;;11.49;100.00
13209;BME280;6669;42.678;23.332;2023-05-23T00:57:46;94392.16;;;11.51;100.00
13209;BME280;6669;42.678;23.332;2023-05-23T01:00:14;94387.31;;;11.48;100.00
13209;BME280;6669;42.678;23.332;2023-05-23T01:02:45;94386.25;;;11.42;100.00
13209;BME280;6669;42.678;23.332;2023-05-23T01:05:14;94389.66;;;11.42;100.00
13209;BME280;6669;42.678;23.332;2023-05-23T01:07:43;94395.75;;;11.35;100.00
13209;BME280;6669;42.678;23.332;2023-05-23T01:10:12;94396.78;;;11.19;100.00
13209;BME280;6669;42.678;23.332;2023-05-23T01:13:15;94403.16;;;11.16;100.00
13209;BME280;6669;42.678;23.332;2023-05-23T01:15:50;94395.97;;;11.18;100.00
13209;BME280;6669;42.678;23.332;2023-05-23T01:18:26;94385.84;;;11.08;100.00
13209;BME280;6669;42.678;23.332;2023-05-23T01:20:58;94389.59;;;11.06;100.00
13209;BME280;6669;42.678;23.332;2023-05-23T01:23:39;94394.00;;;11.05;100.00
13209;BME280;6669;42.678;23.332;2023-05-23T01:26:17;94397.13;;;11.16;100.00
13209;BME280;6669;42.678;23.332;2023-05-23T01:28:55;94393.81;;;11.07;100.00
13209;BME280;6669;42.678;23.332;2023-05-23T01:31:26;94399.94;;;11.14;100.00
13209;BME280;6669;42.678;23.332;2023-05-23T01:33:56;94397.59;;;11.19;100.00
13209;BME280;6669;42.678;23.332;2023-05-23T01:36:24;94396.22;;;11.23;100.00
13209;BME280;6669;42.678;23.332;2023-05-23T01:38:52;94398.84;;;11.23;100.00
13209;BME280;6669;42.678;23.332;2023-05-23T01:41:20;94401.88;;;11.27;100.00
13209;BME280;6669;42.678;23.332;2023-05-23T01:43:48;94391.94;;;11.31;100.00
13209;BME280;6669;42.678;23.332;2023-05-23T01:46:19;94389.94;;;11.33;100.00
13209;BME280;6669;42.678;23.332;2023-05-23T01:48:48;94384.91;;;11.31;100.00
13209;BME280;6669;42.678;23.332;2023-05-23T01:51:17;94380.69;;;11.30;100.00
13209;BME280;6669;42.678;23.332;2023-05-23T01:53:45;94384.19;;;11.37;100.00
13209;BME280;6669;42.678;23.332;2023-05-23T01:56:13;94377.38;;;11.36;100.00
13209;BME280;6669;42.678;23.332;2023-05-23T01:58:41;94376.28;;;11.45;100.00
13209;BME280;6669;42.678;23.332;2023-05-23T02:01:09;94381.50;;;11.45;100.00
13209;BME280;6669;42.678;23.332;2023-05-23T02:03:39;94380.00;;;11.58;100.00
13209;BME280;6669;42.678;23.332;2023-05-23T02:06:07;94379.16;;;11.51;100.00
13209;BME280;6669;42.678;23.332;2023-05-23T02:08:35;94385.59;;;11.55;100.00
13209;BME280;6669;42.678;23.332;2023-05-23T02:11:03;94388.44;;;11.60;100.00
13209;BME280;6669;42.678;23.332;2023-05-23T02:13:31;94384.13;;;11.67;100.00
13209;BME280;6669;42.678;23.332;2023-05-23T02:15:59;94390.75;;;11.70;100.00
13209;BME280;6669;42.678;23.332;2023-05-23T02:18:27;94380.88;;;11.65;100.00
13209;BME280;6669;42.678;23.332;2023-05-23T02:20:56;94386.47;;;11.62;100.00
13209;BME280;6669;42.678;23.332;2023-05-23T02:23:24;94389.19;;;11.54;100.00
13209;BME280;6669;42.678;23.332;2023-05-23T02:25:52;94383.00;;;11.40;100.00
13209;BME280;6669;42.678;23.332;2023-05-23T02:28:20;94378.91;;;11.31;100.00
13209;BME280;6669;42.678;23.332;2023-05-23T02:30:48;94380.97;;;11.35;100.00
13209;BME280;6669;42.678;23.332;2023-05-23T02:33:16;94383.00;;;11.40;100.00
13209;BME280;6669;42.678;23.332;2023-05-23T02:35:45;94375.59;;;11.37;100.00
13209;BME280;6669;42.678;23.332;2023-05-23T02:38:14;94378.97;;;11.37;100.00
13209;BME280;6669;42.678;23.332;2023-05-23T02:40:43;94369.50;;;11.29;100.00
13209;BME280;6669;42.678;23.332;2023-05-23T02:43:11;94373.91;;;11.29;100.00
13209;BME280;6669;42.678;23.332;2023-05-23T02:45:39;94369.88;;;11.11;100.00
13209;BME280;6669;42.678;23.332;2023-05-23T02:48:07;94377.31;;;11.15;100.00
13209;BME280;6669;42.678;23.332;2023-05-23T02:50:35;94369.44;;;11.08;100.00
13209;BME280;6669;42.678;23.332;2023-05-23T02:53:03;94370.53;;;10.99;100.00
13209;BME280;6669;42.678;23.332;2023-05-23T02:55:32;94371.56;;;10.89;100.00
13209;BME280;6669;42.678;23.332;2023-05-23T02:58:00;94375.38;;;10.72;100.00
13209;BME280;6669;42.678;23.332;2023-05-23T03:00:31;94379.56;;;10.73;100.00
13209;BME280;6669;42.678;23.332;2023-05-23T03:02:59;94376.16;;;10.72;100.00
13209;BME280;6669;42.678;23.332;2023-05-23T03:05:27;94376.63;;;10.76;100.00
13209;BME280;6669;42.678;23.332;2023-05-23T03:07:55;94378.31;;;10.84;100.00
13209;BME280;6669;42.678;23.332;2023-05-23T03:10:23;94374.75;;;10.85;100.00
13209;BME280;6669;42.678;23.332;2023-05-23T03:12:52;94372.75;;;10.87;100.00
13209;BME280;6669;42.678;23.332;2023-05-23T03:15:20;94367.03;;;10.91;100.00
13209;BME280;6669;42.678;23.332;2023-05-23T03:17:48;94372.75;;;11.02;100.00
13209;BME280;6669;42.678;23.332;2023-05-23T03:20:16;94371.84;;;11.09;100.00
13209;BME280;6669;42.678;23.332;2023-05-23T03:22:44;94374.38;;;11.18;100.00
13209;BME280;6669;42.678;23.332;2023-05-23T03:25:14;94381.78;;;11.21;100.00
13209;BME280;6669;42.678;23.332;2023-05-23T03:27:42;94381.78;;;11.21;100.00
13209;BME280;6669;42.678;23.332;2023-05-23T03:30:12;94372.03;;;11.23;100.00
13209;BME280;6669;42.678;23.332;2023-05-23T03:32:40;94389.13;;;11.32;100.00
13209;BME280;6669;42.678;23.332;2023-05-23T03:35:08;94388.03;;;11.41;100.00
13209;BME280;6669;42.678;23.332;2023-05-23T03:37:37;94390.47;;;11.43;100.00
13209;BME280;6669;42.678;23.332;2023-05-23T03:40:06;94396.34;;;11.52;100.00
13209;BME280;6669;42.678;23.332;2023-05-23T03:42:35;94396.91;;;11.47;100.00
13209;BME280;6669;42.678;23.332;2023-05-23T03:45:05;94395.56;;;11.51;100.00
13209;BME280;6669;42.678;23.332;2023-05-23T03:47:34;94400.22;;;11.56;100.00
13209;BME280;6669;42.678;23.332;2023-05-23T03:50:02;94398.69;;;11.47;100.00
13209;BME280;6669;42.678;23.332;2023-05-23T03:52:30;94396.09;;;11.47;100.00
13209;BME280;6669;42.678;23.332;2023-05-23T03:54:58;94401.13;;;11.48;100.00
13209;BME280;6669;42.678;23.332;2023-05-23T03:57:26;94402.19;;;11.54;100.00
13209;BME280;6669;42.678;23.332;2023-05-23T03:59:54;94411.25;;;11.58;100.00
13209;BME280;6669;42.678;23.332;2023-05-23T04:02:22;94404.00;;;11.53;100.00
13209;BME280;6669;42.678;23.332;2023-05-23T04:04:52;94410.53;;;11.49;100.00
13209;BME280;6669;42.678;23.332;2023-05-23T04:07:22;94396.88;;;11.62;100.00
13209;BME280;6669;42.678;23.332;2023-05-23T04:09:52;94393.72;;;11.67;100.00
13209;BME280;6669;42.678;23.332;2023-05-23T04:12:20;94402.16;;;11.69;100.00
13209;BME280;6669;42.678;23.332;2023-05-23T04:14:48;94407.09;;;11.78;100.00
13209;BME280;6669;42.678;23.332;2023-05-23T04:17:16;94375.75;;;11.72;100.00
13209;BME280;6669;42.678;23.332;2023-05-23T04:19:44;94399.13;;;11.87;100.00
13209;BME280;6669;42.678;23.332;2023-05-23T04:22:14;94395.59;;;11.94;100.00
13209;BME280;6669;42.678;23.332;2023-05-23T04:24:42;94396.78;;;11.92;100.00
13209;BME280;6669;42.678;23.332;2023-05-23T04:27:10;94401.91;;;12.00;100.00
13209;BME280;6669;42.678;23.332;2023-05-23T04:29:39;94393.13;;;11.86;100.00
13209;BME280;6669;42.678;23.332;2023-05-23T04:32:07;94406.31;;;11.85;100.00
13209;BME280;6669;42.678;23.332;2023-05-23T04:34:35;94402.38;;;11.89;100.00
13209;BME280;6669;42.678;23.332;2023-05-23T04:37:03;94399.88;;;11.81;100.00
13209;BME280;6669;42.678;23.332;2023-05-23T04:39:34;94403.81;;;11.91;100.00
13209;BME280;6669;42.678;23.332;2023-05-23T04:42:02;94393.97;;;11.93;100.00
13209;BME280;6669;42.678;23.332;2023-05-23T04:44:32;94406.75;;;11.88;100.00
13209;BME280;6669;42.678;23.332;2023-05-23T04:47:03;94402.91;;;11.84;100.00
13209;BME280;6669;42.678;23.332;2023-05-23T04:49:31;94416.00;;;11.91;100.00
13209;BME280;6669;42.678;23.332;2023-05-23T04:51:59;94409.13;;;11.83;100.00
13209;BME280;6669;42.678;23.332;2023-05-23T04:54:27;94417.38;;;11.87;100.00
13209;BME280;6669;42.678;23.332;2023-05-23T04:56:57;94420.75;;;11.87;100.00
13209;BME280;6669;42.678;23.332;2023-05-23T04:59:25;94417.56;;;11.85;100.00
13209;BME280;6669;42.678;23.332;2023-05-23T05:01:53;94412.69;;;11.82;100.00
13209;BME280;6669;42.678;23.332;2023-05-23T05:04:21;94411.28;;;11.80;100.00
13209;BME280;6669;42.678;23.332;2023-05-23T05:06:50;94415.16;;;11.84;100.00
13209;BME280;6669;42.678;23.332;2023-05-23T05:09:18;94424.28;;;11.80;100.00
13209;BME280;6669;42.678;23.332;2023-05-23T05:11:47;94429.50;;;11.80;100.00
13209;BME280;6669;42.678;23.332;2023-05-23T05:14:17;94436.31;;;11.81;100.00
13209;BME280;6669;42.678;23.332;2023-05-23T05:16:45;94429.41;;;11.88;100.00
13209;BME280;6669;42.678;23.332;2023-05-23T05:19:14;94437.28;;;11.94;100.00
13209;BME280;6669;42.678;23.332;2023-05-23T05:21:42;94433.59;;;12.04;100.00
13209;BME280;6669;42.678;23.332;2023-05-23T05:24:10;94435.16;;;11.98;100.00
13209;BME280;6669;42.678;23.332;2023-05-23T05:26:38;94431.38;;;12.01;100.00
13209;BME280;6669;42.678;23.332;2023-05-23T05:29:06;94432.59;;;12.05;100.00
13209;BME280;6669;42.678;23.332;2023-05-23T05:31:35;94429.44;;;12.09;100.00
13209;BME280;6669;42.678;23.332;2023-05-23T05:34:04;94433.22;;;12.07;100.00
13209;BME280;6669;42.678;23.332;2023-05-23T05:36:32;94433.53;;;12.19;100.00
13209;BME280;6669;42.678;23.332;2023-05-23T05:38:59;94440.38;;;12.20;100.00
13209;BME280;6669;42.678;23.332;2023-05-23T05:41:27;94439.38;;;12.21;100.00
13209;BME280;6669;42.678;23.332;2023-05-23T05:43:55;94443.53;;;12.15;100.00
13209;BME280;6669;42.678;23.332;2023-05-23T05:46:23;94439.72;;;12.18;100.00
13209;BME280;6669;42.678;23.332;2023-05-23T05:48:53;94440.75;;;12.17;100.00
13209;BME280;6669;42.678;23.332;2023-05-23T05:51:21;94443.03;;;12.26;100.00
13209;BME280;6669;42.678;23.332;2023-05-23T05:53:49;94440.41;;;12.26;100.00
13209;BME280;6669;42.678;23.332;2023-05-23T05:56:17;94448.19;;;12.41;100.00
13209;BME280;6669;42.678;23.332;2023-05-23T05:58:45;94446.56;;;12.40;100.00
13209;BME280;6669;42.678;23.332;2023-05-23T06:01:13;94438.44;;;12.50;100.00
13209;BME280;6669;42.678;23.332;2023-05-23T06:03:41;94443.69;;;12.57;100.00
13209;BME280;6669;42.678;23.332;2023-05-23T06:06:11;94446.03;;;12.73;100.00
13209;BME280;6669;42.678;23.332;2023-05-23T06:08:40;94446.41;;;12.70;100.00
13209;BME280;6669;42.678;23.332;2023-05-23T06:11:08;94442.25;;;12.83;100.00
13209;BME280;6669;42.678;23.332;2023-05-23T06:13:37;94450.25;;;13.09;100.00
13209;BME280;6669;42.678;23.332;2023-05-23T06:16:06;94439.66;;;13.11;100.00
13209;BME280;6669;42.678;23.332;2023-05-23T06:18:34;94446.13;;;13.22;100.00
13209;BME280;6669;42.678;23.332;2023-05-23T06:21:02;94454.38;;;13.25;100.00
13209;BME280;6669;42.678;23.332;2023-05-23T06:23:34;94451.19;;;13.30;100.00
13209;BME280;6669;42.678;23.332;2023-05-23T06:26:03;94452.16;;;13.22;100.00
13209;BME280;6669;42.678;23.332;2023-05-23T06:28:33;94449.63;;;13.36;100.00
13209;BME280;6669;42.678;23.332;2023-05-23T06:31:01;94451.81;;;13.32;100.00
13209;BME280;6669;42.678;23.332;2023-05-23T06:33:29;94450.25;;;13.38;100.00
13209;BME280;6669;42.678;23.332;2023-05-23T06:35:57;94451.63;;;13.34;100.00
13209;BME280;6669;42.678;23.332;2023-05-23T06:38:26;94452.06;;;13.37;100.00
13209;BME280;6669;42.678;23.332;2023-05-23T06:40:56;94451.63;;;13.34;100.00
13209;BME280;6669;42.678;23.332;2023-05-23T06:43:24;94443.38;;;13.30;100.00
13209;BME280;6669;42.678;23.332;2023-05-23T06:45:52;94447.91;;;13.50;100.00
13209;BME280;6669;42.678;23.332;2023-05-23T06:48:21;94442.22;;;13.39;100.00
13209;BME280;6669;42.678;23.332;2023-05-23T06:50:49;94443.09;;;13.47;100.00
13209;BME280;6669;42.678;23.332;2023-05-23T06:53:17;94445.22;;;13.36;100.00
13209;BME280;6669;42.678;23.332;2023-05-23T06:55:45;94447.19;;;13.34;100.00
13209;BME280;6669;42.678;23.332;2023-05-23T06:58:15;94439.94;;;13.30;100.00
13209;BME280;6669;42.678;23.332;2023-05-23T07:00:43;94436.56;;;13.36;100.00
13209;BME280;6669;42.678;23.332;2023-05-23T07:03:11;94426.72;;;13.31;100.00
13209;BME280;6669;42.678;23.332;2023-05-23T07:05:39;94435.47;;;13.52;100.00
13209;BME280;6669;42.678;23.332;2023-05-23T07:08:07;94430.44;;;13.50;100.00
13209;BME280;6669;42.678;23.332;2023-05-23T07:10:37;94431.06;;;13.59;100.00
13209;BME280;6669;42.678;23.332;2023-05-23T07:13:07;94421.44;;;13.66;100.00
13209;BME280;6669;42.678;23.332;2023-05-23T07:15:37;94422.91;;;13.82;100.00
13209;BME280;6669;42.678;23.332;2023-05-23T07:18:05;94423.97;;;14.01;100.00
13209;BME280;6669;42.678;23.332;2023-05-23T07:20:33;94403.28;;;14.13;100.00
13209;BME280;6669;42.678;23.332;2023-05-23T07:23:01;94410.31;;;14.26;100.00
13209;BME280;6669;42.678;23.332;2023-05-23T07:25:29;94402.69;;;14.31;100.00
13209;BME280;6669;42.678;23.332;2023-05-23T07:27:57;94408.53;;;14.53;100.00
13209;BME280;6669;42.678;23.332;2023-05-23T07:30:25;94404.50;;;14.71;100.00
13209;BME280;6669;42.678;23.332;2023-05-23T07:32:55;94387.78;;;14.79;100.00
13209;BME280;6669;42.678;23.332;2023-05-23T07:35:23;94390.41;;;14.92;100.00
13209;BME280;6669;42.678;23.332;2023-05-23T07:37:52;94402.06;;;15.10;100.00
13209;BME280;6669;42.678;23.332;2023-05-23T07:40:20;94396.19;;;15.14;100.00
13209;BME280;6669;42.678;23.332;2023-05-23T07:42:48;94398.38;;;15.24;100.00
13209;BME280;6669;42.678;23.332;2023-05-23T07:45:16;94391.84;;;15.47;100.00
13209;BME280;6669;42.678;23.332;2023-05-23T07:47:44;94396.00;;;15.68;100.00
13209;BME280;6669;42.678;23.332;2023-05-23T07:50:14;94399.16;;;15.77;100.00
13209;BME280;6669;42.678;23.332;2023-05-23T07:52:42;94396.13;;;15.87;100.00
13209;BME280;6669;42.678;23.332;2023-05-23T07:55:12;94399.03;;;16.04;100.00
13209;BME280;6669;42.678;23.332;2023-05-23T07:57:40;94391.19;;;16.04;100.00
13209;BME280;6669;42.678;23.332;2023-05-23T08:00:09;94391.19;;;16.04;100.00
13209;BME280;6669;42.678;23.332;2023-05-23T08:02:38;94396.56;;;16.15;100.00
13209;BME280;6669;42.678;23.332;2023-05-23T08:05:06;94394.00;;;16.34;100.00
13209;BME280;6669;42.678;23.332;2023-05-23T08:07:36;94396.75;;;16.46;100.00
13209;BME280;6669;42.678;23.332;2023-05-23T08:10:06;94392.06;;;16.48;100.00
13209;BME280;6669;42.678;23.332;2023-05-23T08:12:34;94391.81;;;16.56;100.00
13209;BME280;6669;42.678;23.332;2023-05-23T08:15:02;94380.78;;;16.73;100.00
13209;BME280;6669;42.678;23.332;2023-05-23T08:17:30;94385.75;;;16.81;100.00
13209;BME280;6669;42.678;23.332;2023-05-23T08:19:58;94386.75;;;17.05;100.00
13209;BME280;6669;42.678;23.332;2023-05-23T08:22:27;94386.75;;;17.24;100.00
13209;BME280;6669;42.678;23.332;2023-05-23T08:24:57;94396.03;;;17.45;100.00
13209;BME280;6669;42.678;23.332;2023-05-23T08:27:25;94387.59;;;17.55;100.00
13209;BME280;6669;42.678;23.332;2023-05-23T08:29:53;94385.44;;;17.52;100.00
13209;BME280;6669;42.678;23.332;2023-05-23T08:32:21;94395.25;;;17.56;100.00
13209;BME280;6669;42.678;23.332;2023-05-23T08:34:49;94393.22;;;17.58;100.00
13209;BME280;6669;42.678;23.332;2023-05-23T08:37:17;94391.19;;;17.60;100.00
13209;BME280;6669;42.678;23.332;2023-05-23T08:39:45;94391.63;;;17.57;100.00
13209;BME280;6669;42.678;23.332;2023-05-23T08:42:15;94384.94;;;17.61;100.00
13209;BME280;6669;42.678;23.332;2023-05-23T08:44:43;94386.91;;;17.78;100.00
13209;BME280;6669;42.678;23.332;2023-05-23T08:47:12;94377.22;;;17.78;100.00
13209;BME280;6669;42.678;23.332;2023-05-23T08:49:44;94386.16;;;17.89;100.00
13209;BME280;6669;42.678;23.332;2023-05-23T08:52:13;94391.50;;;18.01;100.00
13209;BME280;6669;42.678;23.332;2023-05-23T08:54:45;94390.88;;;18.18;100.00
13209;BME280;6669;42.678;23.332;2023-05-23T08:57:15;94376.50;;;18.44;100.00
13209;BME280;6669;42.678;23.332;2023-05-23T08:59:44;94374.69;;;18.56;100.00
13209;BME280;6669;42.678;23.332;2023-05-23T09:02:13;94375.25;;;18.70;100.00
13209;BME280;6669;42.678;23.332;2023-05-23T09:04:43;94380.53;;;18.82;100.00
13209;BME280;6669;42.678;23.332;2023-05-23T09:07:14;94383.75;;;18.96;100.00
13209;BME280;6669;42.678;23.332;2023-05-23T09:09:43;94371.50;;;19.02;100.00
13209;BME280;6669;42.678;23.332;2023-05-23T09:12:11;94382.56;;;19.27;100.00
13209;BME280;6669;42.678;23.332;2023-05-23T09:14:42;94381.97;;;19.49;100.00
13209;BME280;6669;42.678;23.332;2023-05-23T09:17:15;94370.09;;;19.64;100.00
13209;BME280;6669;42.678;23.332;2023-05-23T09:19:45;94371.34;;;19.73;100.00
13209;BME280;6669;42.678;23.332;2023-05-23T09:22:13;94378.19;;;19.86;100.00
13209;BME280;6669;42.678;23.332;2023-05-23T09:24:42;94368.56;;;19.80;100.00
13209;BME280;6669;42.678;23.332;2023-05-23T09:27:10;94374.63;;;19.80;100.00
13209;BME280;6669;42.678;23.332;2023-05-23T09:29:39;94373.56;;;19.93;100.00
13209;BME280;6669;42.678;23.332;2023-05-23T09:32:12;94369.13;;;19.82;100.00
13209;BME280;6669;42.678;23.332;2023-05-23T09:34:40;94381.78;;;20.08;100.00
13209;BME280;6669;42.678;23.332;2023-05-23T09:37:11;94357.56;;;19.83;100.00
13209;BME280;6669;42.678;23.332;2023-05-23T09:39:48;94374.28;;;20.17;100.00
13209;BME280;6669;42.678;23.332;2023-05-23T09:42:20;94368.75;;;20.36;100.00
13209;BME280;6669;42.678;23.332;2023-05-23T09:44:49;94355.63;;;20.41;100.00
13209;BME280;6669;42.678;23.332;2023-05-23T09:47:19;94357.91;;;20.49;100.00
13209;BME280;6669;42.678;23.332;2023-05-23T09:49:47;94355.47;;;20.48;100.00
13209;BME280;6669;42.678;23.332;2023-05-23T09:52:15;94351.66;;;20.55;100.00
13209;BME280;6669;42.678;23.332;2023-05-23T09:54:46;94357.09;;;20.66;100.00
13209;BME280;6669;42.678;23.332;2023-05-23T09:57:15;94358.88;;;20.77;100.00
13209;BME280;6669;42.678;23.332;2023-05-23T09:59:51;94348.00;;;20.73;100.00
13209;BME280;6669;42.678;23.332;2023-05-23T10:05:30;94346.19;;;20.96;100.00
13209;BME280;6669;42.678;23.332;2023-05-23T10:08:01;94354.69;;;21.20;100.00
13209;BME280;6669;42.678;23.332;2023-05-23T10:10:31;94343.81;;;21.39;100.00
13209;BME280;6669;42.678;23.332;2023-05-23T10:13:02;94351.53;;;21.46;100.00
13209;BME280;6669;42.678;23.332;2023-05-23T10:15:35;94343.19;;;21.54;95.88
13209;BME280;6669;42.678;23.332;2023-05-23T10:18:15;94355.06;;;21.51;89.27
13209;BME280;6669;42.678;23.332;2023-05-23T10:20:48;94345.47;;;21.45;89.66
13209;BME280;6669;42.678;23.332;2023-05-23T10:23:17;94341.34;;;21.54;92.86
13209;BME280;6669;42.678;23.332;2023-05-23T10:25:47;94344.16;;;21.70;91.64
13209;BME280;6669;42.678;23.332;2023-05-23T10:28:15;94339.44;;;21.72;86.41
13209;BME280;6669;42.678;23.332;2023-05-23T10:30:43;94339.63;;;21.93;91.52
13209;BME280;6669;42.678;23.332;2023-05-23T10:33:15;94331.66;;;21.87;80.74
13209;BME280;6669;42.678;23.332;2023-05-23T10:35:51;94336.38;;;21.80;81.15
13209;BME280;6669;42.678;23.332;2023-05-23T10:38:29;94337.03;;;21.98;88.26
13209;BME280;6669;42.678;23.332;2023-05-23T10:41:07;94322.41;;;22.17;83.19
13209;BME280;6669;42.678;23.332;2023-05-23T10:43:44;94324.66;;;22.36;77.60
13209;BME280;6669;42.678;23.332;2023-05-23T10:46:14;94318.25;;;22.59;80.93
13209;BME280;6669;42.678;23.332;2023-05-23T10:48:43;94318.72;;;22.51;76.66
13209;BME280;6669;42.678;23.332;2023-05-23T10:51:13;94315.25;;;22.88;79.06
13209;BME280;6669;42.678;23.332;2023-05-23T10:53:43;94316.31;;;23.40;77.66
13209;BME280;6669;42.678;23.332;2023-05-23T10:56:20;94311.16;;;23.92;75.82
13209;BME280;6669;42.678;23.332;2023-05-23T10:58:52;94312.78;;;24.29;71.49
13209;BME280;6669;42.678;23.332;2023-05-23T11:01:20;94310.13;;;24.08;63.58
13209;BME280;6669;42.678;23.332;2023-05-23T11:03:51;94317.56;;;24.27;67.90
13209;BME280;6669;42.678;23.332;2023-05-23T11:06:29;94310.03;;;25.06;65.66
13209;BME280;6669;42.678;23.332;2023-05-23T11:09:03;94304.06;;;25.35;62.03
13209;BME280;6669;42.678;23.332;2023-05-23T11:11:59;94311.78;;;25.92;61.26
13209;BME280;6669;42.678;23.332;2023-05-23T11:14:31;94312.16;;;26.54;59.10
13209;BME280;6669;42.678;23.332;2023-05-23T11:17:14;94304.19;;;26.49;55.47
13209;BME280;6669;42.678;23.332;2023-05-23T11:19:58;94296.22;;;26.79;57.16
13209;BME280;6669;42.678;23.332;2023-05-23T11:22:26;94302.06;;;27.53;57.33
13209;BME280;6669;42.678;23.332;2023-05-23T11:24:56;94287.84;;;27.58;53.88
13209;BME280;6669;42.678;23.332;2023-05-23T11:27:26;94288.59;;;27.64;54.84
13209;BME280;6669;42.678;23.332;2023-05-23T11:29:59;94293.44;;;27.37;53.72
13209;BME280;6669;42.678;23.332;2023-05-23T11:32:28;94298.75;;;27.62;55.25
13209;BME280;6669;42.678;23.332;2023-05-23T11:35:02;94289.72;;;27.57;54.24
13209;BME280;6669;42.678;23.332;2023-05-23T11:37:30;94288.44;;;27.93;53.06
13209;BME280;6669;42.678;23.332;2023-05-23T11:39:59;94276.47;;;27.90;54.37
13209;BME280;6669;42.678;23.332;2023-05-23T11:42:28;94285.13;;;28.01;54.90
13209;BME280;6669;42.678;23.332;2023-05-23T11:44:56;94282.38;;;28.26;52.17
13209;BME280;6669;42.678;23.332;2023-05-23T11:47:24;94272.94;;;28.14;51.00
13209;BME280;6669;42.678;23.332;2023-05-23T11:49:52;94272.13;;;27.56;51.69
13209;BME280;6669;42.678;23.332;2023-05-23T11:52:22;94273.81;;;28.10;52.30
13209;BME280;6669;42.678;23.332;2023-05-23T11:54:50;94277.13;;;28.20;52.62
13209;BME280;6669;42.678;23.332;2023-05-23T11:57:21;94274.88;;;28.42;53.09
13209;BME280;6669;42.678;23.332;2023-05-23T11:59:50;94277.47;;;28.47;51.36
13209;BME280;6669;42.678;23.332;2023-05-23T12:02:20;94278.50;;;28.65;50.11
13209;BME280;6669;42.678;23.332;2023-05-23T12:04:48;94268.56;;;29.12;51.71
13209;BME280;6669;42.678;23.332;2023-05-23T12:07:18;94272.44;;;28.92;50.74
13209;BME280;6669;42.678;23.332;2023-05-23T12:09:47;94265.38;;;29.24;50.16
13209;BME280;6669;42.678;23.332;2023-05-23T12:12:15;94262.41;;;28.84;50.33
13209;BME280;6669;42.678;23.332;2023-05-23T12:14:43;94254.03;;;29.55;48.38
13209;BME280;6669;42.678;23.332;2023-05-23T12:17:12;94247.84;;;29.04;50.57
13209;BME280;6669;42.678;23.332;2023-05-23T12:19:44;94248.66;;;29.05;50.56
13209;BME280;6669;42.678;23.332;2023-05-23T12:22:14;94247.84;;;29.04;51.36
13209;BME280;6669;42.678;23.332;2023-05-23T12:24:45;94240.88;;;29.45;49.62
13209;BME280;6669;42.678;23.332;2023-05-23T12:27:15;94242.69;;;29.35;49.84
13209;BME280;6669;42.678;23.332;2023-05-23T12:29:49;94239.09;;;29.54;50.38
13209;BME280;6669;42.678;23.332;2023-05-23T12:32:18;94239.34;;;29.66;48.99
13209;BME280;6669;42.678;23.332;2023-05-23T12:34:48;94244.06;;;29.83;49.04
13209;BME280;6669;42.678;23.332;2023-05-23T12:37:16;94233.72;;;29.91;48.61
13209;BME280;6669;42.678;23.332;2023-05-23T12:39:46;94226.66;;;30.17;49.74
13209;BME280;6669;42.678;23.332;2023-05-23T12:42:15;94223.19;;;28.93;48.98
13209;BME280;6669;42.678;23.332;2023-05-23T12:44:43;94223.47;;;28.17;49.77
13209;BME280;6669;42.678;23.332;2023-05-23T12:47:12;94231.06;;;28.10;49.30
13209;BME280;6669;42.678;23.332;2023-05-23T12:49:40;94226.31;;;28.07;48.55
13209;BME280;6669;42.678;23.332;2023-05-23T12:52:10;94218.16;;;28.31;47.54
13209;BME280;6669;42.678;23.332;2023-05-23T12:54:38;94209.91;;;28.74;46.90
13209;BME280;6669;42.678;23.332;2023-05-23T12:57:06;94215.13;;;28.65;46.39
13209;BME280;6669;42.678;23.332;2023-05-23T12:59:36;94205.75;;;28.21;45.04
13209;BME280;6669;42.678;23.332;2023-05-23T13:02:04;94210.84;;;28.64;44.90
13209;BME280;6669;42.678;23.332;2023-05-23T13:04:33;94204.81;;;28.45;46.01
13209;BME280;6669;42.678;23.332;2023-05-23T13:07:01;94201.47;;;28.95;47.03